Time;durP1;ratioP1;P1;durP2;ratioP2;P2;SDS_P1;SDS_P2;PMS_P1;PMS_P2;Temp;Humidity;BMP_temperature;BMP_pressure;BME280_temperature;BME280_humidity;BME280_pressure;Samples;Min_cycle;Max_cycle;Signal;HPM_P1;HPM_P2
2023/12/02 00:00:12;;;;;;;7.75;2.33;;;26.90;99.90;;;;;;5041924;28;20110;-67
2023/12/02 00:02:39;;;;;;;7.80;3.70;;;27.10;99.90;;;;;;5040745;28;20756;-71
2023/12/02 00:05:06;;;;;;;4.65;2.60;;;27.30;99.90;;;;;;5039154;28;20029;-73
2023/12/02 00:07:33;;;;;;;6.28;2.38;;;27.40;99.90;;;;;;5041728;28;20923;-71
2023/12/02 00:10:00;;;;;;;4.07;2.00;;;27.20;99.90;;;;;;5024225;28;20654;-72
2023/12/02 00:12:27;;;;;;;3.28;2.00;;;27.30;99.90;;;;;;4342989;28;10000666;-72
2023/12/02 00:14:54;;;;;;;5.07;2.83;;;27.20;99.90;;;;;;5037260;28;20060;-67
2023/12/02 00:17:21;;;;;;;7.28;4.05;;;27.20;99.90;;;;;;5037991;28;20036;-70
2023/12/02 00:19:48;;;;;;;7.40;3.67;;;27.40;99.90;;;;;;5038744;28;20021;-68
2023/12/02 00:22:15;;;;;;;4.60;2.67;;;27.70;99.90;;;;;;5037714;28;20033;-70
2023/12/02 00:24:42;;;;;;;4.97;2.85;;;27.50;99.90;;;;;;5037368;28;20035;-72
2023/12/02 00:27:09;;;;;;;8.63;3.60;;;27.70;99.90;;;;;;5039435;28;20539;-71
2023/12/02 00:29:36;;;;;;;8.05;3.55;;;28.00;99.90;;;;;;5037545;28;20679;-70
2023/12/02 00:32:03;;;;;;;6.80;2.72;;;28.10;99.90;;;;;;5038088;28;20641;-72
2023/12/02 00:34:30;;;;;;;5.93;2.40;;;28.50;99.90;;;;;;5037932;28;20119;-72
2023/12/02 00:36:59;;;;;;;4.10;2.13;;;28.80;99.90;;;;;;5034209;28;20469;-73
2023/12/02 00:39:29;;;;;;;3.97;1.90;;;28.90;99.90;;;;;;5035677;23;20049;-68
2023/12/02 00:41:56;;;;;;;5.05;1.83;;;29.40;99.90;;;;;;5010940;28;20026;-72
2023/12/02 00:44:23;;;;;;;4.20;1.83;;;29.60;99.90;;;;;;5009050;28;20044;-73
2023/12/02 00:46:50;;;;;;;3.45;2.00;;;29.40;99.90;;;;;;5008041;28;20412;-72
2023/12/02 00:49:17;;;;;;;4.82;4.00;;;29.30;99.90;;;;;;5012942;28;20033;-70
2023/12/02 00:51:44;;;;;;;5.10;2.78;;;29.10;99.90;;;;;;5016755;28;20090;-71
2023/12/02 00:54:10;;;;;;;3.20;1.83;;;28.70;99.90;;;;;;5013973;28;20072;-67
2023/12/02 00:56:37;;;;;;;3.45;1.60;;;28.30;99.90;;;;;;5000511;28;20061;-67
2023/12/02 00:59:04;;;;;;;3.22;1.90;;;28.10;99.90;;;;;;5000013;28;20437;-73
2023/12/02 01:01:31;;;;;;;5.85;2.15;;;28.10;99.90;;;;;;5001173;28;20040;-68
2023/12/02 01:03:58;;;;;;;3.40;2.03;;;28.20;99.90;;;;;;5000667;28;20026;-71
2023/12/02 01:06:25;;;;;;;4.13;1.80;;;28.40;99.90;;;;;;5009408;28;20029;-72
2023/12/02 01:08:52;;;;;;;3.88;1.95;;;28.70;99.90;;;;;;5004133;28;20037;-72
2023/12/02 01:11:19;;;;;;;3.08;1.75;;;28.70;99.90;;;;;;5006896;28;20728;-68
2023/12/02 01:13:46;;;;;;;3.38;1.70;;;28.50;99.90;;;;;;5002088;28;20045;-72
2023/12/02 01:16:13;;;;;;;2.75;1.65;;;28.20;99.90;;;;;;5001846;28;20038;-73
2023/12/02 01:18:40;;;;;;;2.05;1.30;;;28.00;99.90;;;;;;5001440;28;20180;-72
2023/12/02 01:21:07;;;;;;;3.08;1.83;;;27.60;99.90;;;;;;4655134;28;9999789;-67
2023/12/02 01:23:34;;;;;;;4.72;1.90;;;27.30;99.90;;;;;;4999814;28;20440;-71
2023/12/02 01:26:01;;;;;;;3.22;1.70;;;26.80;99.90;;;;;;4998614;28;20030;-69
2023/12/02 01:28:27;;;;;;;3.22;1.73;;;26.40;99.90;;;;;;4997876;28;20022;-71
2023/12/02 01:30:54;;;;;;;5.03;2.25;;;26.10;99.90;;;;;;4999403;28;20038;-68
2023/12/02 01:33:21;;;;;;;3.17;1.90;;;26.10;99.90;;;;;;4997798;28;20041;-72
2023/12/02 01:35:50;;;;;;;6.30;2.17;;;26.10;99.90;;;;;;5000234;28;20774;-71
2023/12/02 01:38:16;;;;;;;4.20;2.00;;;26.10;99.90;;;;;;4981116;28;20056;-73
2023/12/02 01:40:44;;;;;;;3.72;2.08;;;26.40;99.90;;;;;;4997132;28;20081;-72
2023/12/02 01:43:26;;;;;;;3.05;1.67;;;26.60;99.90;;;;;;4998516;28;20125;-71
2023/12/02 01:45:57;;;;;;;3.70;1.92;;;26.70;99.90;;;;;;4997503;28;20026;-68
2023/12/02 01:48:29;;;;;;;4.13;1.77;;;26.80;99.90;;;;;;4998533;28;20117;-72
2023/12/02 01:50:57;;;;;;;2.80;1.80;;;27.10;99.90;;;;;;4999905;28;20056;-70
2023/12/02 01:53:24;;;;;;;5.30;2.00;;;27.50;99.90;;;;;;4998237;28;20108;-71
2023/12/02 01:55:51;;;;;;;2.63;1.80;;;27.70;99.90;;;;;;4995463;28;20026;-67
2023/12/02 01:58:19;;;;;;;3.13;2.03;;;27.90;99.90;;;;;;4998442;28;20053;-70
2023/12/02 02:00:46;;;;;;;4.97;1.92;;;28.10;99.90;;;;;;5000285;28;20022;-71
2023/12/02 02:03:13;;;;;;;4.72;2.50;;;28.10;99.90;;;;;;5002160;28;20076;-69
2023/12/02 02:05:42;;;;;;;3.88;1.83;;;28.00;99.90;;;;;;4999427;28;20458;-70
2023/12/02 02:08:09;;;;;;;4.88;2.10;;;28.20;99.90;;;;;;4995739;28;20722;-70
2023/12/02 02:10:36;;;;;;;4.25;1.85;;;28.30;99.90;;;;;;4996243;28;20491;-68
2023/12/02 02:13:03;;;;;;;3.90;1.92;;;28.70;99.90;;;;;;4985965;28;21558;-68
2023/12/02 02:15:30;;;;;;;4.53;2.08;;;28.60;99.90;;;;;;5002715;28;20030;-68
2023/12/02 02:17:57;;;;;;;2.95;1.50;;;28.70;99.90;;;;;;5004569;28;20599;-67
2023/12/02 02:20:24;;;;;;;4.22;1.80;;;28.50;99.90;;;;;;5002489;28;20029;-70
2023/12/02 02:22:51;;;;;;;4.45;2.00;;;28.40;99.90;;;;;;5003291;28;20025;-69
2023/12/02 02:25:18;;;;;;;3.63;1.73;;;28.60;99.90;;;;;;5004866;28;20117;-69
2023/12/02 02:27:44;;;;;;;3.45;1.55;;;28.20;99.90;;;;;;5003446;28;20033;-74
2023/12/02 02:30:11;;;;;;;4.18;1.65;;;28.20;99.90;;;;;;5003369;28;20037;-66
2023/12/02 02:32:38;;;;;;;3.15;1.77;;;28.30;99.90;;;;;;5003044;28;20121;-70
2023/12/02 02:35:06;;;;;;;3.10;1.60;;;28.70;99.90;;;;;;5002357;28;20018;-67
2023/12/02 02:37:33;;;;;;;2.47;1.48;;;28.90;99.90;;;;;;5002402;28;20021;-68
2023/12/02 02:39:59;;;;;;;3.03;1.33;;;29.10;99.90;;;;;;5001196;28;20045;-68
2023/12/02 02:42:26;;;;;;;4.22;1.70;;;29.20;99.90;;;;;;5003933;28;20033;-67
2023/12/02 02:44:53;;;;;;;3.05;1.58;;;29.20;99.90;;;;;;5002287;28;20040;-69
2023/12/02 02:47:20;;;;;;;3.97;1.80;;;29.60;99.90;;;;;;5003115;28;20033;-68
2023/12/02 02:49:47;;;;;;;3.03;1.77;;;30.00;99.90;;;;;;4985724;28;20032;-72
2023/12/02 02:52:14;;;;;;;3.53;1.42;;;30.30;99.60;;;;;;5002040;28;20041;-68
2023/12/02 02:54:41;;;;;;;3.50;1.70;;;30.50;99.30;;;;;;5001071;28;20038;-66
2023/12/02 02:57:08;;;;;;;2.00;1.30;;;30.90;99.90;;;;;;5000798;28;20194;-68
2023/12/02 02:59:35;;;;;;;3.17;1.40;;;31.10;99.10;;;;;;5000899;28;20037;-69
2023/12/02 03:02:02;;;;;;;4.10;2.75;;;31.10;99.00;;;;;;4999247;28;20071;-71
2023/12/02 03:04:29;;;;;;;1.70;1.33;;;31.30;99.00;;;;;;4997918;28;20034;-66
2023/12/02 03:06:56;;;;;;;3.17;2.00;;;31.30;98.40;;;;;;4998314;28;20022;-67
2023/12/02 03:09:23;;;;;;;2.95;1.63;;;32.00;98.30;;;;;;5002115;28;20084;-72
2023/12/02 03:11:50;;;;;;;4.75;1.83;;;32.90;96.40;;;;;;5000655;28;20112;-68
2023/12/02 03:14:17;;;;;;;2.35;1.58;;;32.60;96.80;;;;;;5000489;28;20421;-68
2023/12/02 03:16:44;;;;;;;3.90;1.73;;;31.70;97.00;;;;;;5002607;28;20028;-69
2023/12/02 03:19:11;;;;;;;3.60;1.63;;;31.40;97.40;;;;;;5001829;28;20030;-72
2023/12/02 03:21:38;;;;;;;3.53;1.58;;;31.60;97.60;;;;;;5001675;28;20018;-73
2023/12/02 03:24:07;;;;;;;2.25;1.65;;;32.00;97.40;;;;;;4998325;28;20033;-71
2023/12/02 03:26:36;;;;;;;1.92;1.10;;;32.10;97.40;;;;;;4995799;28;20087;-69
2023/12/02 03:29:04;;;;;;;3.13;1.40;;;32.30;95.60;;;;;;5001685;28;20056;-68
2023/12/02 03:31:31;;;;;;;2.33;1.25;;;32.00;95.10;;;;;;4998395;28;20033;-69
2023/12/02 03:33:58;;;;;;;2.30;1.25;;;31.80;96.50;;;;;;5001218;28;21397;-71
2023/12/02 03:36:25;;;;;;;2.05;1.17;;;31.80;96.70;;;;;;5001657;28;20040;-71
2023/12/02 03:38:52;;;;;;;1.88;1.10;;;31.70;96.60;;;;;;5001628;28;20030;-66
2023/12/02 03:41:19;;;;;;;1.60;1.20;;;31.80;96.40;;;;;;5002386;28;20116;-71
2023/12/02 03:43:46;;;;;;;4.55;2.30;;;31.60;96.90;;;;;;5001347;28;20109;-70
2023/12/02 03:46:13;;;;;;;4.65;2.70;;;31.80;97.50;;;;;;5001069;28;20026;-67
2023/12/02 03:48:40;;;;;;;4.05;2.08;;;32.00;96.90;;;;;;5001478;28;20025;-66
2023/12/02 03:51:07;;;;;;;2.55;1.80;;;32.20;96.00;;;;;;4999953;28;20025;-73
2023/12/02 03:53:36;;;;;;;4.50;2.45;;;33.20;95.60;;;;;;5001432;28;20038;-73
2023/12/02 03:56:03;;;;;;;3.25;2.15;;;34.20;95.40;;;;;;5000800;28;20029;-73
2023/12/02 03:58:31;;;;;;;4.40;1.92;;;34.80;95.40;;;;;;5002795;28;20026;-72
2023/12/02 04:00:58;;;;;;;3.75;1.92;;;35.30;92.60;;;;;;5001641;28;20025;-68
2023/12/02 04:03:25;;;;;;;3.83;1.55;;;34.50;92.70;;;;;;5002531;28;20021;-67
2023/12/02 04:05:51;;;;;;;4.10;1.85;;;34.10;94.30;;;;;;5003621;28;20038;-70
2023/12/02 04:08:18;;;;;;;3.45;1.80;;;33.50;94.80;;;;;;5001104;28;20279;-71
2023/12/02 04:10:48;;;;;;;2.47;1.52;;;33.00;94.20;;;;;;5000854;28;20053;-68
2023/12/02 04:13:15;;;;;;;4.63;2.67;;;32.80;94.20;;;;;;4998799;28;20131;-65
2023/12/02 04:15:44;;;;;;;5.68;4.22;;;32.40;95.40;;;;;;5001544;28;20060;-71
2023/12/02 04:18:11;;;;;;;4.10;2.03;;;32.20;95.00;;;;;;5002535;28;20032;-69
2023/12/02 04:20:38;;;;;;;3.38;1.50;;;31.90;95.00;;;;;;5002132;28;20041;-69
2023/12/02 04:23:05;;;;;;;4.18;2.00;;;31.90;95.20;;;;;;5001119;28;20068;-68
2023/12/02 04:25:32;;;;;;;12.50;2.85;;;31.80;95.30;;;;;;5001568;28;20036;-69
2023/12/02 04:27:59;;;;;;;3.42;1.55;;;31.80;95.30;;;;;;5001423;28;20495;-66
2023/12/02 04:30:27;;;;;;;53.08;17.45;;;31.80;95.30;;;;;;5001481;28;20053;-65
2023/12/02 04:32:54;;;;;;;10.88;3.28;;;31.80;95.40;;;;;;5000954;28;20029;-71
2023/12/02 04:35:21;;;;;;;3.33;1.83;;;31.90;95.50;;;;;;5002327;28;20037;-69
2023/12/02 04:37:47;;;;;;;4.28;1.80;;;32.10;95.20;;;;;;5000627;28;20128;-70
2023/12/02 04:40:14;;;;;;;2.40;1.20;;;32.20;94.60;;;;;;5003760;28;20161;-65
2023/12/02 04:42:42;;;;;;;4.22;1.50;;;32.10;94.50;;;;;;5000028;28;20026;-68
2023/12/02 04:45:09;;;;;;;2.67;1.65;;;32.30;95.10;;;;;;4999029;28;20084;-70
2023/12/02 04:47:37;;;;;;;2.83;1.35;;;32.70;95.40;;;;;;4999923;28;20036;-68
2023/12/02 04:50:07;;;;;;;6.63;3.53;;;32.80;95.00;;;;;;5000808;28;20029;-68
2023/12/02 04:52:34;;;;;;;4.63;1.70;;;32.60;94.80;;;;;;4652434;28;9999675;-66
2023/12/02 04:55:01;;;;;;;4.57;4.07;;;32.40;94.50;;;;;;4997984;28;20123;-71
2023/12/02 04:57:28;;;;;;;7.35;5.40;;;32.10;95.10;;;;;;4999021;28;20037;-69
2023/12/02 04:59:55;;;;;;;4.68;2.50;;;32.00;95.60;;;;;;4999597;28;20512;-73
2023/12/02 05:02:22;;;;;;;3.22;2.40;;;31.90;95.00;;;;;;5001856;28;20033;-71
2023/12/02 05:04:49;;;;;;;2.53;1.40;;;31.80;95.70;;;;;;4998468;28;20026;-68
2023/12/02 05:07:16;;;;;;;2.15;1.10;;;31.80;96.20;;;;;;4999800;28;20029;-71
2023/12/02 05:09:43;;;;;;;3.28;1.15;;;32.10;95.50;;;;;;4981706;28;20061;-72
2023/12/02 05:12:10;;;;;;;32.78;17.70;;;31.90;95.60;;;;;;5000340;28;20053;-71
2023/12/02 05:14:38;;;;;;;13.68;7.15;;;31.80;95.70;;;;;;4980123;28;20100;-68
2023/12/02 05:17:05;;;;;;;4.93;2.03;;;31.70;96.10;;;;;;4997293;28;20018;-71
2023/12/02 05:19:32;;;;;;;3.78;1.83;;;31.50;96.00;;;;;;5002536;28;20141;-71
2023/12/02 05:21:59;;;;;;;3.47;1.92;;;31.40;95.80;;;;;;5000565;28;20515;-70
2023/12/02 05:24:26;;;;;;;3.67;1.33;;;31.40;95.70;;;;;;4996811;28;20112;-67
2023/12/02 05:26:53;;;;;;;2.53;1.20;;;31.50;95.90;;;;;;4993994;28;20555;-67
2023/12/02 05:29:20;;;;;;;2.58;1.25;;;31.60;96.00;;;;;;4995527;28;20057;-68
2023/12/02 05:31:47;;;;;;;5.45;1.80;;;32.40;95.80;;;;;;4996720;28;20079;-68
2023/12/02 05:34:14;;;;;;;6.47;2.40;;;32.90;96.10;;;;;;4998578;28;20022;-68
2023/12/02 05:36:45;;;;;;;4.40;2.13;;;33.70;95.70;;;;;;4997685;28;20496;-69
2023/12/02 05:39:12;;;;;;;4.47;1.90;;;33.40;96.20;;;;;;4999138;28;20480;-71
2023/12/02 05:41:42;;;;;;;5.35;1.80;;;33.50;96.70;;;;;;5001549;28;20035;-68
2023/12/02 05:44:10;;;;;;;5.65;2.13;;;33.60;96.30;;;;;;4999276;28;20022;-72
2023/12/02 05:46:38;;;;;;;2.78;1.60;;;33.00;96.30;;;;;;5002183;28;20065;-71
2023/12/02 05:49:05;;;;;;;6.97;2.00;;;31.60;97.60;;;;;;5004069;28;20116;-68
2023/12/02 05:51:32;;;;;;;4.72;1.77;;;30.80;98.70;;;;;;5001300;28;20243;-66
2023/12/02 05:53:59;;;;;;;4.70;1.70;;;31.00;99.00;;;;;;5001044;28;20508;-70
2023/12/02 05:56:26;;;;;;;3.28;1.73;;;30.90;98.90;;;;;;5000687;28;20022;-67
2023/12/02 05:58:53;;;;;;;6.18;1.92;;;31.20;98.80;;;;;;4979811;28;20136;-69
2023/12/02 06:01:22;;;;;;;3.42;1.73;;;31.40;98.60;;;;;;5001297;28;20456;-67
2023/12/02 06:03:50;;;;;;;6.30;2.13;;;32.30;98.80;;;;;;5000731;28;20133;-70
2023/12/02 06:06:17;;;;;;;3.47;1.45;;;33.30;97.30;;;;;;5000090;28;20114;-71
2023/12/02 06:08:44;;;;;;;2.80;1.38;;;33.90;96.70;;;;;;5000798;28;20029;-71
2023/12/02 06:11:11;;;;;;;6.03;2.05;;;34.00;96.20;;;;;;5001484;28;20030;-70
2023/12/02 06:13:38;;;;;;;4.00;1.77;;;33.20;97.10;;;;;;5000941;28;20070;-68
2023/12/02 06:16:06;;;;;;;6.68;1.80;;;33.20;97.00;;;;;;5000570;28;20022;-68
2023/12/02 06:18:33;;;;;;;5.47;2.13;;;33.10;96.80;;;;;;5000314;28;20030;-67
2023/12/02 06:21:00;;;;;;;3.70;1.60;;;33.50;96.60;;;;;;5000492;28;20132;-67
2023/12/02 06:23:27;;;;;;;5.63;1.83;;;33.60;96.50;;;;;;5000009;28;20026;-70
2023/12/02 06:25:54;;;;;;;3.75;1.45;;;34.10;96.40;;;;;;5000477;28;20034;-67
2023/12/02 06:28:20;;;;;;;6.90;1.90;;;34.90;95.80;;;;;;4999743;28;20084;-71
2023/12/02 06:30:48;;;;;;;3.80;1.52;;;34.40;95.80;;;;;;5000785;28;20048;-71
2023/12/02 06:33:15;;;;;;;3.17;1.55;;;34.10;96.30;;;;;;5000823;28;20084;-68
2023/12/02 06:35:42;;;;;;;3.10;1.67;;;34.40;95.80;;;;;;5001025;28;20118;-67
2023/12/02 06:38:09;;;;;;;3.13;1.50;;;34.60;96.10;;;;;;5002541;28;20764;-67
2023/12/02 06:40:36;;;;;;;8.05;1.92;;;34.90;95.60;;;;;;5000727;28;20097;-67
2023/12/02 06:43:03;;;;;;;3.05;1.65;;;35.10;95.20;;;;;;5003631;28;20701;-70
2023/12/02 06:45:30;;;;;;;5.10;2.10;;;35.40;95.10;;;;;;5003372;28;20041;-69
2023/12/02 06:47:57;;;;;;;4.43;1.70;;;35.40;95.20;;;;;;5000354;28;20025;-65
2023/12/02 06:50:24;;;;;;;5.47;1.98;;;35.70;94.50;;;;;;5002251;28;20042;-69
2023/12/02 06:52:51;;;;;;;5.35;1.77;;;35.50;94.60;;;;;;5000858;28;20037;-70
2023/12/02 06:55:18;;;;;;;5.82;1.58;;;35.50;94.60;;;;;;5001399;28;20042;-66
2023/12/02 06:57:45;;;;;;;2.38;1.27;;;35.70;95.00;;;;;;5002907;28;20026;-69
2023/12/02 07:00:13;;;;;;;4.03;1.60;;;36.10;94.20;;;;;;5002132;28;20084;-69
2023/12/02 07:02:42;;;;;;;7.68;2.35;;;35.80;94.30;;;;;;4999571;28;20080;-66
2023/12/02 07:05:09;;;;;;;5.90;2.30;;;34.70;94.80;;;;;;5004444;28;20648;-69
2023/12/02 07:07:36;;;;;;;4.15;2.03;;;34.50;95.70;;;;;;5004514;28;20034;-69
2023/12/02 07:10:03;;;;;;;2.92;1.58;;;34.70;95.50;;;;;;5001381;28;21361;-70
2023/12/02 07:12:30;;;;;;;6.50;2.00;;;35.00;95.00;;;;;;5000238;28;20057;-69
2023/12/02 07:14:57;;;;;;;4.05;1.67;;;34.80;94.90;;;;;;5002272;28;20141;-69
2023/12/02 07:17:24;;;;;;;2.40;1.63;;;34.00;95.20;;;;;;5002424;28;20026;-70
2023/12/02 07:19:51;;;;;;;4.43;1.70;;;32.40;96.90;;;;;;5003164;28;20030;-69
2023/12/02 07:22:18;;;;;;;4.20;1.40;;;31.30;98.20;;;;;;5002178;28;20026;-69
2023/12/02 07:24:45;;;;;;;4.30;2.00;;;31.40;98.40;;;;;;5001118;28;20026;-65
2023/12/02 07:27:11;;;;;;;3.40;1.60;;;32.20;97.60;;;;;;5001321;28;20030;-67
2023/12/02 07:29:39;;;;;;;4.05;1.30;;;33.00;97.80;;;;;;5001198;28;20113;-66
2023/12/02 07:32:06;;;;;;;4.45;1.52;;;33.60;96.00;;;;;;5000231;28;20156;-66
2023/12/02 07:34:33;;;;;;;4.63;1.77;;;34.20;95.70;;;;;;4998701;28;20029;-70
2023/12/02 07:37:00;;;;;;;4.30;1.85;;;34.70;95.10;;;;;;4999246;28;20069;-69
2023/12/02 07:39:27;;;;;;;3.22;1.60;;;34.60;95.00;;;;;;4996544;28;20088;-69
2023/12/02 07:41:54;;;;;;;3.78;1.48;;;34.10;95.60;;;;;;5001034;28;20105;-66
2023/12/02 07:44:21;;;;;;;5.25;1.70;;;33.20;96.40;;;;;;5001375;28;20040;-70
2023/12/02 07:46:47;;;;;;;5.97;2.00;;;32.70;98.00;;;;;;5005363;28;20034;-65
2023/12/02 07:49:14;;;;;;;3.05;1.65;;;33.20;97.30;;;;;;5000869;28;20034;-69
2023/12/02 07:51:41;;;;;;;6.35;2.00;;;33.10;96.60;;;;;;4999058;28;20071;-66
2023/12/02 07:54:08;;;;;;;3.70;1.52;;;32.60;97.20;;;;;;5003740;28;20025;-66
2023/12/02 07:56:36;;;;;;;4.03;1.65;;;32.80;97.00;;;;;;4999491;28;20331;-66
2023/12/02 07:59:03;;;;;;;3.25;1.55;;;33.00;96.70;;;;;;5000006;28;20029;-69
2023/12/02 08:01:30;;;;;;;6.15;1.75;;;32.80;97.20;;;;;;5001251;28;20026;-66
2023/12/02 08:03:57;;;;;;;4.68;1.80;;;32.20;97.60;;;;;;4998534;28;20521;-70
2023/12/02 08:06:24;;;;;;;4.53;2.20;;;32.00;97.80;;;;;;4998832;28;20749;-70
2023/12/02 08:08:53;;;;;;;6.53;1.73;;;32.10;98.10;;;;;;5000339;28;20030;-65
2023/12/02 08:11:21;;;;;;;3.72;1.70;;;32.20;98.10;;;;;;4997623;28;20029;-70
2023/12/02 08:13:48;;;;;;;4.90;1.70;;;32.00;98.10;;;;;;4996608;28;20102;-68
2023/12/02 08:16:15;;;;;;;3.20;1.60;;;31.70;98.30;;;;;;4996861;28;20106;-70
2023/12/02 08:18:42;;;;;;;6.10;1.80;;;31.00;98.80;;;;;;4998382;28;20036;-70
2023/12/02 08:21:09;;;;;;;3.08;1.60;;;30.50;99.90;;;;;;4997588;28;20783;-70
2023/12/02 08:23:36;;;;;;;5.18;2.30;;;29.80;99.90;;;;;;4996503;28;20034;-68
2023/12/02 08:26:03;;;;;;;4.22;1.75;;;29.10;99.90;;;;;;4995832;28;20128;-67
2023/12/02 08:28:29;;;;;;;4.47;1.95;;;28.20;99.90;;;;;;4996433;28;20030;-69
2023/12/02 08:30:57;;;;;;;6.18;2.50;;;27.00;99.90;;;;;;4998668;28;20671;-69
2023/12/02 08:33:23;;;;;;;5.13;2.28;;;26.30;99.90;;;;;;4996886;28;20040;-68
2023/12/02 08:35:50;;;;;;;6.35;2.05;;;25.80;99.90;;;;;;4995670;28;20041;-66
2023/12/02 08:38:17;;;;;;;4.72;2.00;;;25.50;99.90;;;;;;4997891;28;20021;-66
2023/12/02 08:40:44;;;;;;;5.88;2.30;;;25.10;99.90;;;;;;5000275;28;20038;-67
2023/12/02 08:43:11;;;;;;;8.32;2.40;;;24.90;99.90;;;;;;4998776;28;20363;-66
2023/12/02 08:45:38;;;;;;;8.45;2.67;;;24.60;99.90;;;;;;4997514;28;20033;-67
2023/12/02 08:48:05;;;;;;;4.55;2.00;;;24.40;99.90;;;;;;4997718;28;20044;-70
2023/12/02 08:50:33;;;;;;;5.88;2.63;;;24.10;99.90;;;;;;4999273;28;20030;-68
2023/12/02 08:53:00;;;;;;;4.70;2.17;;;24.00;99.90;;;;;;4999125;28;20536;-71
2023/12/02 08:55:27;;;;;;;4.70;2.20;;;23.90;99.90;;;;;;4998916;28;20087;-67
2023/12/02 08:57:54;;;;;;;4.70;2.35;;;24.00;99.90;;;;;;4999644;28;20022;-67
2023/12/02 09:00:21;;;;;;;3.47;1.95;;;23.90;99.90;;;;;;4997974;28;20026;-67
2023/12/02 09:02:48;;;;;;;4.72;2.10;;;23.80;99.90;;;;;;4999009;28;20124;-68
2023/12/02 09:05:15;;;;;;;6.18;2.80;;;23.70;99.90;;;;;;4999699;28;20095;-70
2023/12/02 09:07:42;;;;;;;5.65;2.40;;;23.70;99.90;;;;;;4997851;28;20045;-67
2023/12/02 09:10:10;;;;;;;11.13;4.00;;;23.70;99.90;;;;;;4999530;28;20025;-73
2023/12/02 09:12:37;;;;;;;6.88;3.22;;;23.70;99.90;;;;;;4998944;28;20444;-72
2023/12/02 09:15:15;;;;;;;4.75;2.40;;;23.70;99.90;;;;;;4998312;28;20153;-68
2023/12/02 09:18:17;;;;;;;10.00;3.35;;;23.60;99.90;;;;;;5000493;28;20030;-73
2023/12/02 09:20:49;;;;;;;6.10;2.55;;;23.60;99.90;;;;;;4991553;28;20121;-67
2023/12/02 09:23:16;;;;;;;;;;;23.70;99.90;;;;;;4995237;28;20046;-67
2023/12/02 09:25:45;;;;;;;14.15;5.53;;;23.60;99.90;;;;;;4996112;28;19917;-71
2023/12/02 09:28:15;;;;;;;8.18;4.18;;;23.40;99.90;;;;;;4994545;28;20029;-73
2023/12/02 09:30:47;;;;;;;12.23;4.47;;;23.30;99.90;;;;;;4994496;28;20038;-72
2023/12/02 09:33:14;;;;;;;10.63;3.55;;;23.20;99.90;;;;;;4995811;28;20032;-71
2023/12/02 09:35:41;;;;;;;10.15;4.05;;;23.20;99.90;;;;;;4992862;28;20439;-67
2023/12/02 09:38:08;;;;;;;9.55;3.53;;;23.10;99.90;;;;;;4977508;28;20030;-67
2023/12/02 09:41:04;;;;;;;11.70;4.25;;;23.00;99.90;;;;;;4996392;28;20049;-74
2023/12/02 09:43:50;;;;;;;3.80;2.55;;;22.90;99.90;;;;;;4999034;28;20439;-68
2023/12/02 09:46:26;;;;;;;8.90;3.28;;;22.70;99.90;;;;;;4998519;28;20030;-71
2023/12/02 09:48:55;;;;;;;4.95;1.85;;;22.70;99.90;;;;;;4997587;28;20038;-66
2023/12/02 09:51:45;;;;;;;6.10;1.40;;;22.50;99.90;;;;;;4981678;28;20044;-67
2023/12/02 09:54:19;;;;;;;14.82;7.90;;;22.10;99.90;;;;;;5000259;28;20453;-64
2023/12/02 09:56:56;;;;;;;2.58;0.90;;;21.30;99.90;;;;;;4995521;28;20610;-68
2023/12/02 09:59:58;;;;;;;3.17;0.95;;;20.50;99.90;;;;;;4998149;28;20042;-68
2023/12/02 10:02:42;;;;;;;2.65;1.10;;;19.90;99.90;;;;;;4998683;28;20026;-68
2023/12/02 10:05:14;;;;;;;1.83;0.95;;;19.50;99.90;;;;;;4997515;28;20030;-65
2023/12/02 10:07:40;;;;;;;2.88;0.77;;;19.20;99.90;;;;;;4997334;28;20033;-68
2023/12/02 10:10:13;;;;;;;1.98;1.00;;;19.20;99.90;;;;;;4998591;28;20041;-67
2023/12/02 10:12:48;;;;;;;;;;;19.00;99.90;;;;;;4998471;28;20026;-66
2023/12/02 10:15:17;;;;;;;2.80;1.10;;;19.00;99.90;;;;;;4999146;28;19953;-68
2023/12/02 10:17:53;;;;;;;2.95;1.13;;;19.00;99.90;;;;;;4998196;28;20030;-65
2023/12/02 10:20:26;;;;;;;2.38;1.45;;;19.00;99.90;;;;;;4997265;28;20080;-66
2023/12/02 10:22:59;;;;;;;6.60;1.50;;;19.00;99.90;;;;;;4998538;28;20854;-65
2023/12/02 10:25:49;;;;;;;5.35;1.55;;;19.00;99.90;;;;;;4998854;28;20041;-64
2023/12/02 10:28:42;;;;;;;2.10;1.40;;;19.10;99.90;;;;;;4998292;28;20481;-62
2023/12/02 10:31:25;;;;;;;3.80;1.33;;;19.20;99.90;;;;;;4997517;28;20042;-69
2023/12/02 10:33:52;;;;;;;4.75;1.65;;;19.30;99.90;;;;;;5000240;28;20046;-65
2023/12/02 10:36:21;;;;;;;2.85;1.17;;;19.40;99.90;;;;;;5001269;28;20034;-70
2023/12/02 10:39:09;;;;;;;5.22;1.60;;;19.50;99.90;;;;;;5000153;28;20028;-66
2023/12/02 10:41:55;;;;;;;6.93;2.03;;;19.60;99.90;;;;;;4998612;28;20038;-67
2023/12/02 10:44:24;;;;;;;6.20;2.25;;;19.70;99.90;;;;;;4998673;28;20109;-64
2023/12/02 10:46:53;;;;;;;7.03;2.45;;;19.70;99.90;;;;;;4998829;28;20079;-64
2023/12/02 10:49:21;;;;;;;7.43;3.97;;;19.70;99.90;;;;;;4996924;28;20488;-66
2023/12/02 10:51:50;;;;;;;5.38;2.10;;;19.70;99.90;;;;;;4998431;28;20038;-68
2023/12/02 10:54:20;;;;;;;4.43;1.48;;;19.60;99.90;;;;;;4998156;28;20022;-67
2023/12/02 10:56:48;;;;;;;3.65;2.10;;;19.60;99.90;;;;;;4994813;28;20045;-68
2023/12/02 10:59:20;;;;;;;4.13;2.15;;;19.60;99.90;;;;;;4997661;28;20033;-67
2023/12/02 11:01:58;;;;;;;4.50;1.95;;;19.60;99.90;;;;;;4996872;28;20490;-64
2023/12/02 11:04:33;;;;;;;1.98;1.63;;;19.60;99.90;;;;;;4999183;28;20127;-65
2023/12/02 11:07:07;;;;;;;3.63;1.63;;;19.60;99.90;;;;;;4997368;28;20034;-70
2023/12/02 11:09:57;;;;;;;3.15;1.25;;;19.60;99.90;;;;;;4997789;28;20095;-65
2023/12/02 11:12:27;;;;;;;4.60;1.13;;;19.60;99.90;;;;;;4996884;28;20416;-68
2023/12/02 11:15:03;;;;;;;2.85;1.05;;;19.50;99.90;;;;;;4996869;28;20815;-66
2023/12/02 11:17:42;;;;;;;2.67;1.10;;;19.60;99.90;;;;;;4997796;28;21640;-67
2023/12/02 11:20:31;;;;;;;1.23;0.82;;;19.70;99.90;;;;;;4997920;28;21001;-63
2023/12/02 11:23:00;;;;;;;1.52;0.55;;;19.70;99.90;;;;;;4999943;28;20041;-65
2023/12/02 11:25:40;;;;;;;2.53;1.10;;;19.80;99.90;;;;;;5000098;28;20022;-67
2023/12/02 11:28:16;;;;;;;1.90;0.60;;;19.80;99.90;;;;;;5000515;28;20064;-67
2023/12/02 11:31:25;;;;;;;2.28;0.63;;;19.80;99.90;;;;;;5000446;28;20124;-67
2023/12/02 11:33:54;;;;;;;2.78;0.60;;;19.70;99.90;;;;;;5000290;28;20105;-64
2023/12/02 11:36:59;;;;;;;1.67;0.55;;;19.60;99.90;;;;;;4999113;28;20385;-67
2023/12/02 11:39:39;;;;;;;1.45;0.73;;;19.60;99.90;;;;;;4999991;28;20042;-67
2023/12/02 11:42:19;;;;;;;2.35;0.70;;;19.60;99.90;;;;;;5000526;28;20025;-68
2023/12/02 11:45:02;;;;;;;1.30;1.00;;;19.60;99.90;;;;;;4999584;28;20046;-65
2023/12/02 11:47:38;;;;;;;;;;;19.50;99.90;;;;;;5001268;28;20026;-67
2023/12/02 11:50:31;;;;;;;2.70;1.25;;;19.40;99.90;;;;;;5000221;28;19951;-64
2023/12/02 11:53:39;;;;;;;2.30;1.10;;;19.10;99.90;;;;;;4998119;28;20034;-67
2023/12/02 11:56:10;;;;;;;2.47;1.50;;;19.00;99.90;;;;;;4918402;29;20040;-65
2023/12/02 11:58:49;;;;;;;3.92;1.63;;;18.70;99.90;;;;;;4919647;29;20526;-66
2023/12/02 12:01:28;;;;;;;2.85;1.23;;;18.50;99.90;;;;;;4920237;29;20521;-68
2023/12/02 12:04:10;;;;;;;4.75;1.65;;;18.30;99.90;;;;;;4919380;29;20508;-67
2023/12/02 12:06:45;;;;;;;5.20;1.90;;;18.20;99.90;;;;;;4932517;29;20402;-68
2023/12/02 12:09:21;;;;;;;3.72;2.60;;;18.20;99.90;;;;;;4920298;29;20027;-67
2023/12/02 12:11:52;;;;;;;6.43;3.72;;;18.20;99.90;;;;;;4919278;29;20234;-66
2023/12/02 12:14:20;;;;;;;6.97;3.70;;;18.30;99.90;;;;;;4918946;29;20066;-67
2023/12/02 12:16:47;;;;;;;5.53;2.70;;;18.20;99.90;;;;;;4918873;29;20050;-65
2023/12/02 12:19:14;;;;;;;3.47;2.20;;;18.30;99.90;;;;;;4919779;29;20032;-65
2023/12/02 12:21:42;;;;;;;4.95;2.25;;;18.20;99.90;;;;;;4919283;29;20027;-67
2023/12/02 12:24:09;;;;;;;3.15;1.40;;;18.20;99.90;;;;;;4918799;29;20019;-66
2023/12/02 12:26:36;;;;;;;2.05;1.30;;;18.20;99.90;;;;;;4918529;29;20103;-66
2023/12/02 12:29:03;;;;;;;2.17;1.15;;;18.30;99.90;;;;;;4918734;29;20121;-68
2023/12/02 12:31:30;;;;;;;5.57;1.35;;;18.30;99.90;;;;;;4950782;28;20104;-64
2023/12/02 12:33:58;;;;;;;1.92;0.90;;;18.30;99.90;;;;;;4999762;28;20025;-65
2023/12/02 12:36:28;;;;;;;3.30;1.27;;;18.20;99.90;;;;;;4998331;28;20384;-67
2023/12/02 12:39:00;;;;;;;4.60;1.42;;;18.20;99.90;;;;;;5007084;23;20031;-66
2023/12/02 12:41:27;;;;;;;3.33;1.20;;;18.20;99.90;;;;;;5009532;28;20044;-66
2023/12/02 12:43:54;;;;;;;2.55;1.35;;;18.10;99.90;;;;;;5014868;28;20017;-65
2023/12/02 12:46:21;;;;;;;5.28;3.08;;;18.10;99.90;;;;;;5013895;28;20025;-66
2023/12/02 12:48:53;;;;;;;6.72;2.95;;;18.10;99.90;;;;;;5013590;28;21458;-68
2023/12/02 12:51:21;;;;;;;4.95;2.40;;;17.90;99.90;;;;;;5012482;28;20555;-67
2023/12/02 12:54:11;;;;;;;3.10;1.75;;;18.00;99.90;;;;;;5015046;28;20057;-64
2023/12/02 12:56:53;;;;;;;4.00;1.83;;;18.10;99.90;;;;;;5010300;28;20040;-66
2023/12/02 12:59:26;;;;;;;6.27;1.60;;;18.00;99.90;;;;;;5010773;28;20159;-68